Time;durP1;ratioP1;P1;durP2;ratioP2;P2;SDS_P1;SDS_P2;PMS_P1;PMS_P2;Temp;Humidity;BMP_temperature;BMP_pressure;BME280_temperature;BME280_humidity;BME280_pressure;Samples;Min_cycle;Max_cycle;Signal;HPM_P1;HPM_P2
2022/06/23 04:33:18;;;;;;;;;3.00;3.00;;;;;20.67;71.14;100651.88;5017461;28;45409;-70
2022/06/23 04:35:49;;;;;;;;;3.00;3.00;;;;;20.69;70.92;100671.63;5017551;28;45447;-71
2022/06/23 04:38:22;;;;;;;;;5.50;4.00;;;;;20.76;70.74;100668.22;5017367;28;45390;-72
2022/06/23 04:41:13;;;;;;;;;2.75;2.75;;;;;20.81;70.64;100654.19;5016870;28;46270;-72
2022/06/23 04:43:44;;;;;;;;;4.00;4.00;;;;;20.88;70.22;100658.09;5007606;28;45470;-71
2022/06/23 04:46:48;;;;;;;;;2.00;2.00;;;;;20.91;70.41;100660.56;5017095;28;45365;-72
2022/06/23 04:49:20;;;;;;;;;3.25;3.00;;;;;20.95;70.03;100653.81;5016283;28;46430;-71
2022/06/23 04:52:12;;;;;;;;;3.50;3.50;;;;;21.01;70.21;100664.16;5016718;28;45552;-72
2022/06/23 04:54:54;;;;;;;;;2.00;2.00;;;;;20.98;69.92;100661.72;5016833;28;45209;-73
2022/06/23 04:57:33;;;;;;;;;4.00;2.00;;;;;20.96;69.84;100655.53;5017317;28;45380;-71
2022/06/23 05:00:01;;;;;;;;;3.00;3.00;;;;;20.92;69.92;100658.69;5016881;28;45281;-72
2022/06/23 05:02:41;;;;;;;;;3.50;3.50;;;;;20.91;70.29;100663.28;5016214;28;46260;-70
2022/06/23 05:05:19;;;;;;;;;6.75;4.00;;;;;20.93;70.00;100663.13;5016862;28;45352;-73
2022/06/23 05:07:58;;;;;;;;;3.75;2.00;;;;;20.91;70.35;100666.00;5016887;28;45312;-69
2022/06/23 05:10:50;;;;;;;;;2.00;2.00;;;;;20.90;70.64;100672.44;5004199;28;45319;-70
2022/06/23 05:13:22;;;;;;;;;5.25;2.50;;;;;20.81;70.76;100669.69;5007921;28;46152;-68
2022/06/23 05:16:00;;;;;;;;;1.75;1.75;;;;;20.84;70.80;100675.72;5016551;28;45403;-69
2022/06/23 05:18:30;;;;;;;;;5.00;4.00;;;;;20.78;70.86;100674.41;5016457;28;45423;-70
2022/06/23 05:20:58;;;;;;;;;5.75;3.00;;;;;20.78;71.07;100679.84;5016475;28;45392;-70
2022/06/23 05:23:35;;;;;;;;;4.00;4.00;;;;;20.67;71.41;100674.50;5016409;28;46076;-70
2022/06/23 05:26:32;;;;;;;;;8.00;4.50;;;;;20.55;70.93;100674.72;4998726;28;45394;-69
2022/06/23 05:29:13;;;;;;;;;3.50;2.25;;;;;20.62;70.66;100682.22;4998572;28;45314;-73
2022/06/23 05:31:40;;;;;;;;;2.25;2.25;;;;;20.64;70.46;100677.50;5025456;28;45284;-72
2022/06/23 05:34:17;;;;;;;;;5.00;3.00;;;;;20.77;69.81;100677.25;5035232;28;45471;-74
2022/06/23 05:37:03;;;;;;;;;2.75;2.75;;;;;20.85;69.34;100671.13;5036131;28;45384;-74
2022/06/23 05:39:36;;;;;;;;;6.25;4.00;;;;;21.02;69.05;100678.63;5036276;28;45415;-74
2022/06/23 05:42:10;;;;;;;;;3.25;3.25;;;;;21.08;68.51;100673.50;5035851;28;45315;-71
2022/06/23 05:45:02;;;;;;;;;4.25;4.25;;;;;21.01;68.11;100664.16;5036138;28;45368;-69
2022/06/23 05:47:31;;;;;;;;;3.00;3.00;;;;;20.89;67.39;100662.53;5036340;28;45382;-72
2022/06/23 05:50:03;;;;;;;;;6.25;4.50;;;;;20.88;66.14;100677.16;5036235;28;45400;-75
2022/06/23 05:52:40;;;;;;;;;7.00;5.25;;;;;20.80;66.99;100677.00;5035939;28;45490;-74
2022/06/23 05:55:27;;;;;;;;;4.75;4.75;;;;;20.83;67.21;100662.25;5017737;28;48199;-73
2022/06/23 05:58:04;;;;;;;;;5.25;4.50;;;;;20.85;67.23;100666.53;5035818;28;45478;-69
2022/06/23 06:00:54;;;;;;;;;5.00;5.00;;;;;20.97;66.71;100659.13;5035886;28;45526;-70
2022/06/23 06:03:32;;;;;;;;;5.25;5.25;;;;;21.10;66.38;100655.13;5035424;28;45449;-73
2022/06/23 06:06:01;;;;;;;;;5.00;4.25;;;;;21.24;65.50;100663.97;5035959;28;45976;-73
2022/06/23 06:08:32;;;;;;;;;4.75;4.00;;;;;21.23;64.55;100663.09;5012661;28;45865;-73
2022/06/23 06:11:01;;;;;;;;;4.75;4.75;;;;;21.14;65.16;100666.63;5010579;28;45382;-74
2022/06/23 06:13:32;;;;;;;;;7.00;4.50;;;;;21.12;65.41;100663.19;5035958;28;45655;-75
2022/06/23 06:15:59;;;;;;;;;8.00;5.50;;;;;21.02;65.37;100668.59;5035915;28;45358;-71
2022/06/23 06:18:29;;;;;;;;;6.75;6.75;;;;;20.95;65.67;100678.34;5035526;28;45312;-70
2022/06/23 06:20:58;;;;;;;;;4.75;4.75;;;;;20.87;66.28;100663.69;5034576;28;45366;-71
2022/06/23 06:23:49;;;;;;;;;6.75;5.25;;;;;20.95;66.06;100662.00;5034039;28;45421;-68
2022/06/23 06:26:18;;;;;;;;;8.00;7.00;;;;;20.99;65.69;100658.00;5033519;28;45412;-70
2022/06/23 06:28:43;;;;;;;;;5.25;5.25;;;;;20.98;65.57;100661.72;5034760;28;45399;-69
2022/06/23 06:31:32;;;;;;;;;5.50;5.50;;;;;20.86;66.00;100657.38;5034794;28;45582;-69
2022/06/23 06:34:19;;;;;;;;;5.50;4.50;;;;;20.92;65.96;100653.25;5034809;28;45443;-69
2022/06/23 06:36:48;;;;;;;;;5.25;5.25;;;;;20.94;65.71;100649.34;5035220;28;46631;-69
2022/06/23 06:39:18;;;;;;;;;5.50;5.50;;;;;21.02;65.61;100654.09;5034049;28;45418;-69
2022/06/23 06:42:01;;;;;;;;;6.25;5.50;;;;;21.02;64.50;100656.84;5035071;28;45449;-69
2022/06/23 06:44:28;;;;;;;;;6.25;5.50;;;;;21.08;64.89;100648.97;5034939;28;45269;-71
2022/06/23 06:46:54;;;;;;;;;5.75;5.75;;;;;21.22;64.23;100658.66;5034897;28;45425;-70
2022/06/23 06:49:21;;;;;;;;;5.00;5.00;;;;;21.25;63.79;100650.19;5035004;28;45265;-69
2022/06/23 06:51:49;;;;;;;;;5.00;5.00;;;;;21.21;63.97;100654.19;5035250;28;46122;-69
2022/06/23 06:54:24;;;;;;;;;7.00;6.75;;;;;21.20;63.92;100657.06;5035031;28;45583;-71
2022/06/23 06:57:04;;;;;;;;;7.75;6.50;;;;;21.13;64.42;100660.31;5035079;28;46300;-70
2022/06/23 06:59:42;;;;;;;;;7.50;6.25;;;;;21.20;64.04;100662.50;5035028;28;45378;-71
2022/06/23 07:02:19;;;;;;;;;6.00;6.00;;;;;21.16;64.31;100661.91;5035030;28;45395;-70
2022/06/23 07:05:22;;;;;;;;;5.50;5.50;;;;;21.29;64.27;100680.75;5034552;28;45177;-70
2022/06/23 07:07:55;;;;;;;;;7.25;7.25;;;;;21.30;64.08;100671.56;5034549;28;45343;-68
2022/06/23 07:10:29;;;;;;;;;6.25;5.75;;;;;21.23;64.28;100663.09;5022276;28;45534;-68
2022/06/23 07:13:13;;;;;;;;;6.50;5.00;;;;;21.27;64.14;100655.47;5034779;28;45393;-72
2022/06/23 07:15:46;;;;;;;;;6.75;5.25;;;;;21.34;63.76;100656.66;5034627;28;45401;-70
2022/06/23 07:18:18;;;;;;;;;7.75;6.50;;;;;21.29;63.75;100657.06;5033981;28;46265;-70
2022/06/23 07:21:04;;;;;;;;;6.25;5.00;;;;;21.28;63.74;100676.28;5034460;28;45387;-70
2022/06/23 07:23:37;;;;;;;;;6.00;5.00;;;;;21.18;64.11;100679.00;5034416;28;45424;-70
2022/06/23 07:26:17;;;;;;;;;5.50;5.50;;;;;21.21;63.83;100678.72;5034113;28;45329;-69
2022/06/23 07:28:50;;;;;;;;;4.50;4.50;;;;;21.36;63.20;100681.91;5034587;28;45293;-70
2022/06/23 07:31:43;;;;;;;;;6.25;6.25;;;;;21.44;63.03;100676.59;5034093;28;45410;-70
2022/06/23 07:34:12;;;;;;;;;4.00;4.00;;;;;21.54;61.97;100682.94;5034120;28;45513;-69
2022/06/23 07:36:52;;;;;;;;;7.50;4.50;;;;;21.60;61.58;100689.72;5034739;28;45378;-70
2022/06/23 07:39:25;;;;;;;;;4.75;4.75;;;;;21.64;61.43;100688.41;5034068;28;45398;-70
2022/06/23 07:41:59;;;;;;;;;7.75;6.00;;;;;21.61;61.18;100692.28;5034295;28;45493;-69
2022/06/23 07:44:32;;;;;;;;;6.00;6.00;;;;;21.64;60.64;100692.00;5034469;28;45289;-70
2022/06/23 07:46:58;;;;;;;;;7.75;7.00;;;;;21.60;60.16;100695.19;5034043;28;45540;-70
2022/06/23 07:49:25;;;;;;;;;6.25;5.00;;;;;21.60;60.83;100701.50;5034252;28;46022;-70
2022/06/23 07:51:51;;;;;;;;;6.75;5.50;;;;;21.65;60.35;100684.69;5033861;28;45444;-69
2022/06/23 07:54:20;;;;;;;;;3.75;3.75;;;;;21.73;60.22;100696.59;5034293;28;45467;-71
2022/06/23 07:56:46;;;;;;;;;8.00;6.50;;;;;21.78;59.92;100687.97;5034076;28;45554;-69
2022/06/23 07:59:19;;;;;;;;;4.75;4.75;;;;;21.84;60.46;100691.03;5034281;28;46268;-71
2022/06/23 08:02:00;;;;;;;;;7.00;7.00;;;;;21.90;60.42;100682.25;5033862;28;45409;-70
2022/06/23 08:05:07;;;;;;;;;7.75;7.00;;;;;22.05;60.25;100682.69;5034226;28;45307;-70
2022/06/23 08:07:34;;;;;;;;;7.50;6.50;;;;;22.09;59.74;100678.66;5027868;28;45606;-70
2022/06/23 08:10:06;;;;;;;;;6.00;6.00;;;;;22.11;60.00;100675.81;5020408;28;45433;-70
2022/06/23 08:12:53;;;;;;;;;5.50;5.50;;;;;22.09;59.77;100677.81;5033741;28;45335;-71
2022/06/23 08:18:41;;;;;;;;;5.00;5.00;;;;;22.07;60.41;100683.41;5033367;28;45318;-71
2022/06/23 08:21:18;;;;;;;;;7.00;7.00;;;;;22.12;59.94;100677.50;5033685;28;45524;-70
2022/06/23 08:24:00;;;;;;;;;2.75;2.75;;;;;22.18;60.01;100687.84;5033678;28;45260;-70
2022/06/23 08:26:26;;;;;;;;;8.50;6.75;;;;;22.15;60.13;100674.47;5033701;28;45382;-71
2022/06/23 08:28:57;;;;;;;;;7.75;6.00;;;;;22.13;59.96;100660.09;5033833;28;45405;-69
2022/06/23 08:31:22;;;;;;;;;7.00;6.00;;;;;22.27;59.39;100656.94;5033543;28;45499;-71
2022/06/23 08:33:47;;;;;;;;;9.00;5.75;;;;;22.41;58.89;100671.97;5033120;28;45361;-69
2022/06/23 08:36:19;;;;;;;;;7.00;5.75;;;;;22.46;58.64;100675.13;5033601;28;45393;-71
2022/06/23 08:39:07;;;;;;;;;7.25;7.25;;;;;22.50;58.91;100679.28;5033501;28;45424;-69
2022/06/23 08:41:53;;;;;;;;;7.75;7.25;;;;;22.55;58.73;100677.81;5033589;28;46107;-69
2022/06/23 08:44:33;;;;;;;;;7.50;7.50;;;;;22.52;58.77;100669.94;5034031;28;45629;-71
2022/06/23 08:47:12;;;;;;;;;6.00;6.00;;;;;22.64;58.70;100667.88;5033397;28;45792;-71
2022/06/23 08:49:45;;;;;;;;;7.00;7.00;;;;;22.67;57.58;100662.13;5033935;28;45406;-69
2022/06/23 08:52:35;;;;;;;;;10.50;6.50;;;;;22.82;57.50;100681.66;5033523;28;46291;-70
2022/06/23 08:55:06;;;;;;;;;7.25;5.75;;;;;22.86;57.09;100678.47;5033632;28;45458;-71
2022/06/23 08:57:47;;;;;;;;;8.50;6.75;;;;;22.87;57.05;100679.34;5034074;28;45208;-71
2022/06/23 09:00:31;;;;;;;;;8.75;8.25;;;;;22.95;57.30;100682.19;5033721;28;45367;-70
2022/06/23 09:03:07;;;;;;;;;8.00;8.00;;;;;23.05;56.84;100679.41;5035564;28;46272;-71
2022/06/23 09:06:02;;;;;;;;;5.50;5.50;;;;;23.14;55.12;100681.22;5037330;28;45328;-72
2022/06/23 09:08:40;;;;;;;;;6.00;5.00;;;;;23.19;54.89;100682.47;5031689;28;45391;-70
2022/06/23 09:11:20;;;;;;;;;6.00;5.00;;;;;23.22;55.17;100671.22;5030588;28;45229;-69
2022/06/23 09:14:30;;;;;;;;;9.50;7.25;;;;;23.19;55.08;100655.13;5036914;28;45328;-71
2022/06/23 09:17:07;;;;;;;;;6.50;6.00;;;;;23.36;54.22;100676.19;4995923;28;45312;-71
2022/06/23 09:20:16;;;;;;;;;6.00;6.00;;;;;23.40;54.21;100668.50;5033057;28;45303;-70
2022/06/23 09:22:45;;;;;;;;;5.75;5.75;;;;;23.43;53.53;100684.63;5036303;28;45597;-71
2022/06/23 09:25:20;;;;;;;;;6.00;5.00;;;;;23.45;53.56;100674.38;5036494;28;45439;-71
2022/06/23 09:27:50;;;;;;;;;5.00;5.00;;;;;23.49;53.80;100674.97;5036448;28;45368;-69
2022/06/23 09:30:54;;;;;;;;;5.75;5.75;;;;;23.56;53.73;100678.81;5036736;28;45364;-72
2022/06/23 09:34:13;;;;;;;;;6.25;5.50;;;;;23.59;53.65;100678.50;4983823;28;45955;-73
2022/06/23 09:37:02;;;;;;;;;5.25;4.25;;;;;23.65;53.21;100667.78;4926516;28;45830;-70
2022/06/23 09:39:51;;;;;;;;;8.75;7.00;;;;;23.70;53.49;100667.31;5009096;28;45402;-71
2022/06/23 09:42:32;;;;;;;;;6.25;6.25;;;;;23.75;53.28;100662.22;5001556;28;45500;-70
2022/06/23 09:45:26;;;;;;;;;5.50;5.50;;;;;23.79;53.47;100654.56;5036521;28;45351;-71
2022/06/23 09:48:04;;;;;;;;;6.75;6.75;;;;;23.84;53.14;100649.47;5036188;28;46123;-71
2022/06/23 09:51:07;;;;;;;;;9.00;8.50;;;;;23.91;53.11;100665.09;5036490;28;45456;-70
2022/06/23 09:53:51;;;;;;;;;8.00;8.00;;;;;23.97;53.60;100656.28;5036232;28;45320;-70
2022/06/23 09:56:35;;;;;;;;;6.00;6.00;;;;;23.94;53.05;100659.31;5036379;28;45332;-70
2022/06/23 09:59:38;;;;;;;;;8.75;6.00;;;;;23.96;52.34;100660.03;5018137;28;46178;-70
2022/06/23 10:02:22;;;;;;;;;5.75;5.75;;;;;23.85;52.57;100660.25;5035554;28;45595;-70
2022/06/23 10:04:59;;;;;;;;;6.75;6.75;;;;;23.81;52.63;100666.22;5036315;28;45434;-73
2022/06/23 10:07:36;;;;;;;;;8.75;6.50;;;;;23.75;52.42;100667.69;5036031;28;45365;-69
2022/06/23 10:10:15;;;;;;;;;7.75;7.75;;;;;23.69;53.63;100660.13;5021960;28;46261;-72
2022/06/23 10:13:02;;;;;;;;;6.50;6.50;;;;;23.76;53.51;100661.19;5036090;28;45566;-74
2022/06/23 10:15:42;;;;;;;;;9.75;8.25;;;;;23.76;53.83;100664.81;5036024;28;45327;-70
2022/06/23 10:18:14;;;;;;;;;6.25;4.75;;;;;23.79;53.29;100662.78;5035284;28;45423;-70
2022/06/23 10:20:48;;;;;;;;;5.50;5.50;;;;;23.81;53.03;100663.50;5035511;28;45308;-70
2022/06/23 10:23:25;;;;;;;;;3.75;3.75;;;;;23.85;53.37;100654.78;5017615;28;45475;-70
2022/06/23 10:26:06;;;;;;;;;9.00;6.50;;;;;23.91;53.71;100659.63;5035442;28;45310;-70
2022/06/23 10:29:05;;;;;;;;;7.00;7.00;;;;;24.02;53.18;100653.91;5035594;28;45400;-69
2022/06/23 10:32:05;;;;;;;;;7.75;7.75;;;;;24.14;51.67;100663.59;5035070;28;46101;-70
2022/06/23 10:34:52;;;;;;;;;10.00;7.50;;;;;24.25;52.05;100651.53;5035074;28;45377;-68
2022/06/23 10:37:49;;;;;;;;;7.00;7.00;;;;;24.26;51.78;100631.34;5035556;28;45603;-70
2022/06/23 10:40:17;;;;;;;;;8.00;7.00;;;;;24.36;51.49;100644.94;5020801;28;45432;-71
2022/06/23 10:43:04;;;;;;;;;6.25;5.75;;;;;24.44;51.32;100637.63;5035281;28;45298;-69
2022/06/23 10:45:42;;;;;;;;;8.25;7.25;;;;;24.46;50.63;100635.59;5035383;28;45408;-71
2022/06/23 10:48:28;;;;;;;;;8.25;7.00;;;;;24.49;51.23;100635.28;5035382;28;45530;-70
2022/06/23 10:51:09;;;;;;;;;6.75;5.75;;;;;24.58;50.84;100636.19;5035350;28;45526;-69
2022/06/23 10:54:04;;;;;;;;;9.00;6.00;;;;;24.57;49.98;100641.81;5017100;28;47418;-70
2022/06/23 10:57:02;;;;;;;;;1.50;0.50;;;;;24.63;49.62;100638.41;5017480;28;45459;-69
2022/06/23 10:59:29;;;;;;;;;7.50;6.00;;;;;24.68;49.75;100636.03;5035458;28;45383;-70
2022/06/23 11:02:21;;;;;;;;;6.25;4.75;;;;;24.60;48.03;100619.53;5034828;28;45531;-71
2022/06/23 11:05:21;;;;;;;;;6.25;6.25;;;;;24.60;48.36;100636.84;5034890;28;45479;-70
2022/06/23 11:08:16;;;;;;;;;9.00;6.00;;;;;24.48;49.88;100628.06;5017023;28;45341;-71
2022/06/23 11:11:06;;;;;;;;;8.00;8.00;;;;;24.63;49.00;100624.69;5025189;28;45445;-70
2022/06/23 11:13:55;;;;;;;;;7.50;4.75;;;;;24.77;49.15;100627.69;5034555;28;45730;-71
2022/06/23 11:16:29;;;;;;;;;6.75;6.75;;;;;24.91;48.06;100626.25;5034605;28;46638;-70
2022/06/23 11:19:15;;;;;;;;;6.50;6.50;;;;;25.01;47.06;100631.59;5034757;28;45423;-70
2022/06/23 11:22:01;;;;;;;;;5.00;5.00;;;;;25.10;46.36;100616.84;5034914;28;45444;-69
2022/06/23 11:24:38;;;;;;;;;4.50;4.50;;;;;25.23;47.37;100618.13;5033947;28;45484;-71
2022/06/23 11:27:25;;;;;;;;;5.00;4.00;;;;;25.39;46.93;100606.31;5034701;28;45451;-71
2022/06/23 11:30:01;;;;;;;;;6.75;6.75;;;;;25.44;46.21;100601.16;5034652;28;45305;-71
2022/06/23 11:32:47;;;;;;;;;6.00;5.00;;;;;25.49;47.17;100607.00;5034289;28;45491;-71
2022/06/23 11:35:27;;;;;;;;;5.00;5.00;;;;;25.53;46.47;100613.84;5034522;28;45515;-71
2022/06/23 11:38:01;;;;;;;;;5.00;5.00;;;;;25.60;45.28;100611.34;5034300;28;45517;-71
2022/06/23 11:40:35;;;;;;;;;5.00;5.00;;;;;25.71;45.59;100599.16;5034295;28;45333;-70
2022/06/23 11:43:43;;;;;;;;;6.00;6.00;;;;;25.88;45.30;100598.09;5034573;28;45416;-70
2022/06/23 11:46:27;;;;;;;;;5.75;5.50;;;;;25.92;45.76;100588.50;5014787;28;45588;-71
2022/06/23 11:49:10;;;;;;;;;3.50;3.50;;;;;25.93;43.70;100588.34;5034483;28;45847;-69
2022/06/23 11:51:51;;;;;;;;;5.50;5.50;;;;;26.02;43.90;100602.94;5034534;28;45483;-71
2022/06/23 11:54:19;;;;;;;;;7.00;6.00;;;;;26.06;43.76;100593.28;5034341;28;45330;-71
2022/06/23 11:56:47;;;;;;;;;7.75;6.00;;;;;26.15;43.59;100584.00;5034427;28;45357;-70
2022/06/23 11:59:35;;;;;;;;;5.00;5.00;;;;;26.31;44.10;100586.75;5034157;28;45316;-70
2022/06/23 12:02:01;;;;;;;;;5.25;5.00;;;;;26.40;43.71;100573.84;5033553;28;45349;-71
2022/06/23 12:04:32;;;;;;;;;8.25;5.00;;;;;26.55;43.33;100582.19;5034299;28;45341;-72
2022/06/23 12:07:08;;;;;;;;;6.50;6.50;;;;;26.63;43.75;100579.41;5015992;28;47449;-71
2022/06/23 12:09:39;;;;;;;;;6.50;5.75;;;;;26.70;42.88;100569.44;5020283;28;46135;-71
2022/06/23 12:12:06;;;;;;;;;5.75;4.50;;;;;26.71;42.16;100576.66;5034015;28;45226;-71
2022/06/23 12:14:32;;;;;;;;;4.25;4.25;;;;;26.69;40.94;100567.72;5034127;28;45317;-70
2022/06/23 12:17:05;;;;;;;;;5.75;4.75;;;;;26.87;41.11;100568.31;5033551;28;45603;-71
2022/06/23 12:19:52;;;;;;;;;6.00;5.75;;;;;27.10;40.41;100562.88;5033745;28;45392;-70
2022/06/23 12:22:33;;;;;;;;;6.00;5.00;;;;;27.16;39.88;100551.13;5034185;28;45297;-70
2022/06/23 12:25:27;;;;;;;;;4.50;4.50;;;;;27.36;41.01;100554.28;5034046;28;45266;-69
2022/06/23 12:28:14;;;;;;;;;4.25;4.25;;;;;27.50;39.67;100548.81;5033576;28;45427;-71
2022/06/23 12:31:06;;;;;;;;;5.00;5.00;;;;;27.76;37.92;100529.16;5033878;28;45613;-69
2022/06/23 12:33:55;;;;;;;;;5.00;5.00;;;;;28.02;39.11;100537.00;5033909;28;45363;-69
2022/06/23 12:36:29;;;;;;;;;5.75;5.75;;;;;28.17;39.03;100540.66;5028172;28;45583;-69
2022/06/23 12:39:03;;;;;;;;;5.75;4.75;;;;;28.20;39.59;100545.81;5037461;28;45215;-72
2022/06/23 12:41:41;;;;;;;;;3.00;3.00;;;;;28.17;40.04;100535.16;5037464;28;46287;-71
2022/06/23 12:44:18;;;;;;;;;7.25;5.00;;;;;28.32;38.31;100540.69;5037403;28;45559;-70
2022/06/23 12:47:09;;;;;;;;;4.50;4.50;;;;;28.48;39.26;100529.44;5037227;28;45266;-71
2022/06/23 12:49:48;;;;;;;;;4.25;4.25;;;;;28.54;37.83;100525.91;5037559;28;45333;-71
2022/06/23 12:52:33;;;;;;;;;5.00;4.00;;;;;28.38;37.89;100522.50;5037321;28;45358;-71
2022/06/23 12:54:58;;;;;;;;;8.00;6.50;;;;;28.29;37.47;100531.94;5037385;28;45349;-71
2022/06/23 12:57:52;;;;;;;;;5.00;5.00;;;;;28.24;39.18;100533.34;5036951;28;45340;-72
2022/06/23 13:00:40;;;;;;;;;6.50;6.00;;;;;28.22;39.51;100529.06;5036865;28;45711;-71
2022/06/23 13:03:46;;;;;;;;;2.75;2.00;;;;;28.34;38.75;100523.91;5030603;28;46205;-71
2022/06/23 13:06:28;;;;;;;;;6.25;6.00;;;;;28.24;39.10;100516.78;4982755;28;45558;-70
2022/06/23 13:09:03;;;;;;;;;6.25;4.00;;;;;28.16;38.77;100525.16;5015390;28;45279;-70
2022/06/23 13:11:42;;;;;;;;;5.75;5.50;;;;;28.23;38.64;100509.59;5032490;28;45362;-71
2022/06/23 13:14:19;;;;;;;;;6.25;5.00;;;;;28.58;38.99;100515.38;5036716;28;46227;-71
2022/06/23 13:17:27;;;;;;;;;7.50;4.75;;;;;28.62;37.92;100491.84;5036315;28;45306;-70
2022/06/23 13:20:08;;;;;;;;;2.00;1.75;;;;;28.76;38.24;100513.06;5004612;28;45411;-71
2022/06/23 13:22:49;;;;;;;;;4.50;4.50;;;;;28.71;35.77;100510.00;5036704;28;45388;-71
2022/06/23 13:25:20;;;;;;;;;4.25;4.25;;;;;28.77;37.07;100512.00;5036709;28;46465;-70
2022/06/23 13:27:51;;;;;;;;;4.00;4.00;;;;;28.74;37.28;100498.59;5036739;28;45324;-71
2022/06/23 13:30:20;;;;;;;;;5.00;5.00;;;;;28.61;37.02;100502.03;5036451;28;45352;-70
2022/06/23 13:33:11;;;;;;;;;4.25;4.25;;;;;28.51;36.60;100504.22;5036027;28;45293;-72
2022/06/23 13:35:46;;;;;;;;;5.00;3.25;;;;;28.50;37.03;100498.91;5036307;28;45479;-71
2022/06/23 13:38:17;;;;;;;;;5.25;3.75;;;;;28.86;37.40;100512.75;5036390;28;45339;-71
2022/06/23 13:40:54;;;;;;;;;4.75;4.25;;;;;29.30;34.88;100507.94;5036649;28;45303;-71
2022/06/23 13:43:36;;;;;;;;;6.00;5.00;;;;;29.72;35.46;100507.06;5018018;28;46467;-71
2022/06/23 13:46:14;;;;;;;;;5.50;4.00;;;;;29.91;35.05;100502.75;5017915;28;46324;-70
2022/06/23 13:48:48;;;;;;;;;5.50;4.00;;;;;30.03;34.35;100509.44;5035590;28;45230;-70
2022/06/23 13:51:45;;;;;;;;;4.25;3.75;;;;;30.02;33.82;100504.13;5036746;28;45293;-70
2022/06/23 13:54:17;;;;;;;;;4.75;4.50;;;;;30.12;33.67;100488.00;5035650;28;45462;-71
2022/06/23 13:56:58;;;;;;;;;5.00;5.00;;;;;30.26;33.88;100480.66;5035998;28;45253;-70
2022/06/23 13:59:43;;;;;;;;;6.00;5.00;;;;;30.46;33.46;100490.75;5035872;28;45326;-72
2022/06/23 14:02:35;;;;;;;;;4.00;4.00;;;;;30.46;33.02;100485.22;5035684;28;45509;-70
2022/06/23 14:05:18;;;;;;;;;5.00;4.00;;;;;30.56;33.23;100475.72;5035894;28;45888;-70
2022/06/23 14:07:47;;;;;;;;;2.50;2.50;;;;;30.56;33.39;100476.56;5035930;28;45311;-70
2022/06/23 14:10:22;;;;;;;;;7.25;5.00;;;;;30.75;33.39;100478.56;5022581;28;45478;-70
2022/06/23 14:12:53;;;;;;;;;5.25;5.00;;;;;31.01;32.42;100486.09;5036362;28;45484;-71
2022/06/23 14:15:39;;;;;;;;;4.25;4.25;;;;;31.44;31.90;100469.13;5036229;28;45243;-72
2022/06/23 14:18:18;;;;;;;;;6.50;5.25;;;;;31.73;32.25;100474.25;5035632;28;45423;-70
2022/06/23 14:20:53;;;;;;;;;4.50;4.50;;;;;31.91;31.68;100477.22;5035934;28;45477;-70
2022/06/23 14:24:00;;;;;;;;;4.75;4.00;;;;;31.89;31.36;100473.84;5036105;28;45307;-70
2022/06/23 14:26:42;;;;;;;;;4.00;4.00;;;;;32.24;31.11;100471.63;4973544;28;45599;-70
2022/06/23 14:29:19;;;;;;;;;5.00;5.00;;;;;32.63;31.13;100476.19;5006251;28;48485;-71
2022/06/23 14:31:58;;;;;;;;;4.25;4.25;;;;;33.07;29.86;100471.72;5015097;28;45439;-70
2022/06/23 14:35:04;;;;;;;;;4.00;4.00;;;;;33.18;28.91;100484.88;5034819;28;45544;-69
2022/06/23 14:37:53;;;;;;;;;3.50;3.50;;;;;32.88;29.32;100481.88;5001455;28;45609;-70
2022/06/23 14:40:40;;;;;;;;;6.00;5.00;;;;;32.31;30.18;100477.19;5035081;28;45372;-69
2022/06/23 14:43:32;;;;;;;;;3.00;3.00;;;;;31.71;30.52;100458.94;5035715;28;45464;-71
2022/06/23 14:46:10;;;;;;;;;4.25;4.25;;;;;31.34;30.91;100480.63;5035970;28;45310;-70
2022/06/23 14:49:13;;;;;;;;;3.00;3.00;;;;;31.25;31.62;100481.91;5035076;28;45558;-69
2022/06/23 14:52:06;;;;;;;;;4.00;3.75;;;;;31.65;30.70;100471.72;5035507;28;45575;-70
2022/06/23 14:54:42;;;;;;;;;5.25;4.00;;;;;32.15;29.63;100480.41;5035122;28;45392;-70
2022/06/23 14:57:32;;;;;;;;;7.25;6.00;;;;;32.74;29.44;100476.63;5034019;28;45335;-70
2022/06/23 15:00:18;;;;;;;;;3.00;3.00;;;;;32.81;29.02;100463.53;5034125;28;45235;-71
2022/06/23 15:03:08;;;;;;;;;4.50;3.00;;;;;33.02;29.17;100452.06;5034967;28;47267;-72
2022/06/23 15:06:02;;;;;;;;;2.00;1.50;;;;;33.50;28.99;100459.88;5035272;28;45332;-71
2022/06/23 15:08:42;;;;;;;;;3.50;3.50;;;;;33.98;27.61;100440.63;5008280;28;45543;-72
2022/06/23 15:11:18;;;;;;;;;3.00;3.00;;;;;34.38;26.10;100446.59;5028709;28;45344;-72
2022/06/23 15:13:48;;;;;;;;;3.00;3.00;;;;;34.83;26.82;100441.53;5034829;28;45714;-72
2022/06/23 15:16:35;;;;;;;;;3.25;3.25;;;;;35.10;24.80;100433.63;5034889;28;45281;-71
2022/06/23 15:19:07;;;;;;;;;3.50;3.50;;;;;35.27;25.78;100426.31;5035024;28;45373;-71
2022/06/23 15:24:50;;;;;;;;;4.00;4.00;;;;;35.57;24.63;100421.47;5034546;28;45360;-72
2022/06/23 15:27:41;;;;;;;;;4.25;4.25;;;;;35.35;24.80;100439.91;5028681;28;45412;-72
2022/06/23 15:30:22;;;;;;;;;4.00;3.00;;;;;35.05;25.38;100441.88;5034931;28;45404;-72
2022/06/23 15:32:59;;;;;;;;;3.75;3.75;;;;;34.69;26.02;100440.00;5034374;28;45345;-73
2022/06/23 15:35:38;;;;;;;;;4.75;4.00;;;;;34.51;25.95;100443.66;5016908;28;46752;-72
2022/06/23 15:38:33;;;;;;;;;4.00;4.00;;;;;34.12;26.72;100425.47;5034868;28;45447;-71
2022/06/23 15:41:13;;;;;;;;;4.50;4.00;;;;;33.71;26.75;100451.13;5035120;28;45496;-72
2022/06/23 15:44:03;;;;;;;;;3.50;3.50;;;;;33.64;27.56;100450.34;5034753;28;45439;-71
2022/06/23 15:46:47;;;;;;;;;5.50;3.75;;;;;33.53;27.33;100435.25;5034663;28;46601;-71
2022/06/23 15:49:12;;;;;;;;;4.00;4.00;;;;;33.52;27.19;100438.28;5034585;28;45369;-69
2022/06/23 15:51:55;;;;;;;;;3.50;3.50;;;;;33.64;27.05;100428.94;5034786;28;45392;-70
2022/06/23 15:54:33;;;;;;;;;4.00;3.00;;;;;33.62;26.82;100427.47;5034343;28;45559;-69
2022/06/23 15:57:14;;;;;;;;;3.75;3.75;;;;;33.63;26.87;100415.28;5034209;28;45351;-69
2022/06/23 16:00:00;;;;;;;;;5.00;4.00;;;;;33.64;26.46;100433.66;5034240;28;45420;-70
2022/06/23 16:02:34;;;;;;;;;3.00;3.00;;;;;33.40;26.67;100427.03;5034228;28;45507;-71
2022/06/23 16:05:06;;;;;;;;;4.00;3.75;;;;;33.23;27.64;100421.19;5033778;28;45282;-71
2022/06/23 16:07:35;;;;;;;;;3.00;3.00;;;;;33.07;27.87;100418.94;5033969;28;46152;-71
2022/06/23 16:10:24;;;;;;;;;3.75;3.00;;;;;32.77;27.49;100427.03;5020495;28;45500;-72
2022/06/23 16:12:50;;;;;;;;;2.75;2.75;;;;;32.52;27.53;100431.63;4984040;28;45401;-71
2022/06/23 16:15:47;;;;;;;;;4.00;3.75;;;;;32.42;27.83;100434.84;5033585;28;45481;-70
2022/06/23 16:18:23;;;;;;;;;4.00;4.00;;;;;32.22;27.99;100434.97;5011439;28;45547;-70
2022/06/23 16:21:04;;;;;;;;;3.50;3.50;;;;;32.28;28.22;100424.91;5034044;28;45244;-71
2022/06/23 16:23:46;;;;;;;;;5.00;3.75;;;;;32.31;27.88;100422.56;5034374;28;45365;-71
2022/06/23 16:26:30;;;;;;;;;4.00;4.00;;;;;32.39;28.84;100423.38;5015440;28;46091;-71
2022/06/23 16:29:10;;;;;;;;;5.25;3.25;;;;;32.30;28.87;100417.22;5034078;28;45530;-68
2022/06/23 16:32:03;;;;;;;;;4.00;4.00;;;;;32.10;28.76;100431.13;5034851;28;45389;-69
2022/06/23 16:34:34;;;;;;;;;3.00;3.00;;;;;31.80;28.81;100424.38;5035113;28;45500;-69
2022/06/23 16:37:11;;;;;;;;;4.00;4.00;;;;;31.64;29.88;100413.75;5035070;28;45226;-70
2022/06/23 16:39:48;;;;;;;;;4.00;3.50;;;;;31.34;29.84;100416.06;5017216;28;47023;-68
2022/06/23 16:42:33;;;;;;;;;4.00;4.00;;;;;31.15;30.31;100415.00;5016100;28;45477;-71
2022/06/23 16:45:16;;;;;;;;;3.00;3.00;;;;;31.02;30.76;100413.03;5033629;28;45443;-70
2022/06/23 16:47:55;;;;;;;;;4.00;3.00;;;;;30.94;31.05;100404.94;5033362;28;45364;-72
2022/06/23 16:50:29;;;;;;;;;5.00;5.00;;;;;31.00;30.43;100408.78;5033371;28;46321;-71
2022/06/23 16:53:14;;;;;;;;;0.00;0.00;;;;;30.80;30.41;100405.97;5033460;28;45378;-70
2022/06/23 16:56:13;;;;;;;;;3.00;3.00;;;;;30.73;31.14;100402.34;5033661;28;45372;-72
2022/06/23 16:58:54;;;;;;;;;3.25;3.25;;;;;30.66;30.62;100395.94;5033138;28;45352;-70
2022/06/23 17:01:28;;;;;;;;;5.00;4.00;;;;;30.53;31.16;100390.38;5032891;28;47009;-71
2022/06/23 17:04:15;;;;;;;;;2.75;2.50;;;;;30.48;31.22;100388.19;5033108;28;45348;-68